CST,Max TemperatureF,Mean TemperatureF,Min TemperatureF,Max Dew PointF,MeanDew PointF,Min DewpointF,Max Humidity, Mean Humidity, Min Humidity, Max Sea Level PressureIn, Mean Sea Level PressureIn, Min Sea Level PressureIn, Max VisibilityMiles, Mean VisibilityMiles, Min VisibilityMiles, Max Wind SpeedMPH, Mean Wind SpeedMPH, Max Gust SpeedMPH,PrecipitationIn, CloudCover, Events, WindDirDegrees
2012-2-1,63,54,45,54,49,42,99,80,52,30.11,30.06,30.02,10,8,1,10,6,16,0.00,4,,269
2012-2-2,58,45,32,44,38,32,100,82,42,30.34,30.27,30.15,10,6,0,8,4,,0.00,1,Fog,348
2012-2-3,55,45,35,43,38,32,96,75,41,30.37,30.31,30.21,10,9,7,15,5,18,0.01,3,Rain,78
2012-2-4,50,47,44,50,47,42,99,95,75,30.13,30.06,30.00,10,3,0,14,7,,0.36,8,Fog-Rain,42
2012-2-5,44,41,37,43,40,35,100,93,78,30.27,30.19,30.09,10,6,2,14,7,17,0.00,7,,9
2012-2-6,48,38,28,36,33,29,100,85,56,30.29,30.24,30.20,10,6,1,12,3,,0.00,1,,283
2012-2-7,50,38,26,38,33,26,100,83,56,30.28,30.24,30.21,10,7,0,10,2,,0.00,2,Fog,330
2012-2-8,38,36,32,34,32,28,98,87,77,30.40,30.35,30.30,10,7,3,14,8,18,0.00,8,Rain,324
2012-2-9,36,34,32,30,25,22,81,71,63,30.40,30.34,30.24,10,10,7,9,5,,0.00,8,,293
2012-2-10,37,34,30,36,33,28,97,89,76,30.20,30.08,30.00,10,8,3,21,6,31,0.01,8,Rain-Snow,203
2012-2-11,27,22,18,19,12,8,80,62,47,30.49,30.39,30.18,10,10,10,26,20,34,0.00,3,,312
2012-2-12,35,26,18,17,11,10,72,55,35,30.52,30.47,30.40,10,10,10,17,10,22,0.00,0,,283
2012-2-13,35,27,19,30,21,16,94,75,50,30.33,30.18,29.98,10,10,5,16,5,18,0.00,5,Rain-Snow,162
2012-2-14,40,36,32,35,33,32,100,95,80,30.11,29.97,29.87,10,7,2,9,6,,0.00,8,Rain-Snow,203
2012-2-15,46,39,32,45,39,32,99,94,88,30.15,30.09,30.00,10,6,2,14,6,,0.26,8,Rain,128
2012-2-16,48,44,38,45,42,36,100,91,71,30.24,30.10,29.96,10,5,0,21,6,29,0.02,7,Fog-Rain,278
2012-2-17,51,39,27,40,32,28,100,86,48,30.26,30.20,30.12,10,5,0,9,1,,0.00,3,Fog,152
2012-2-18,46,38,31,35,32,30,100,80,52,30.16,30.11,30.08,10,9,7,12,3,,0.00,1,,358
2012-2-19,43,36,28,30,27,24,87,73,47,30.18,30.09,30.04,10,10,7,16,10,20,0.00,1,,358
2012-2-20,48,36,23,31,27,22,98,76,47,30.29,30.21,30.06,10,10,7,18,5,23,0.00,0,,105
2012-2-21,51,45,39,40,38,32,91,73,63,29.92,29.87,29.75,10,10,5,22,14,32,0.07,6,Rain,205
2012-2-22,60,46,32,47,36,32,96,69,35,29.85,29.63,29.48,10,10,5,21,8,25,0.18,3,Rain-Thunderstorm,200
2012-2-23,68,52,37,56,46,37,99,81,59,29.55,29.42,29.25,10,9,3,20,7,25,0.00,3,,144
2012-2-24,53,44,36,45,32,27,76,67,54,30.11,29.82,29.48,10,10,10,30,19,39,0.00,5,,272
2012-2-25,39,34,27,27,24,20,92,65,46,30.35,30.26,30.13,10,10,10,24,11,32,0.00,4,,284
2012-2-26,59,43,27,32,27,23,90,58,27,30.34,30.23,30.12,10,10,10,20,10,25,0.00,0,,159
2012-2-27,56,46,36,35,30,24,79,56,32,30.46,30.34,30.20,10,10,7,21,8,22,0.00,0,,303
2012-2-28,62,46,30,45,33,26,86,65,44,30.42,30.28,30.04,10,10,7,10,6,,0.00,4,,81
2012-2-29,68,63,58,62,49,33,92,64,30,29.82,29.73,29.65,10,10,2,39,16,51,0.19,5,Rain-Thunderstorm,223